Time;durP1;ratioP1;P1;durP2;ratioP2;P2;SDS_P1;SDS_P2;PMS_P1;PMS_P2;Temp;Humidity;BMP_temperature;BMP_pressure;BME280_temperature;BME280_humidity;BME280_pressure;Samples;Min_cycle;Max_cycle;Signal;HPM_P1;HPM_P2
2024/03/08 00:01:56;;;;;;;8.90;3.72;;;;;;;5.40;80.44;101705.44;5086761;28;20040;-67
2024/03/08 00:04:22;;;;;;;10.00;3.75;;;;;;;5.34;81.32;101699.34;5074183;28;20027;-67
2024/03/08 00:06:47;;;;;;;7.20;3.75;;;;;;;5.38;81.04;101692.34;5069829;28;20043;-67
2024/03/08 00:09:14;;;;;;;11.45;3.05;;;;;;;5.35;80.31;101692.94;5069790;28;20044;-67
2024/03/08 00:11:40;;;;;;;10.05;4.05;;;;;;;5.35;80.41;101687.59;5085738;28;20032;-67
2024/03/08 00:14:07;;;;;;;9.13;3.22;;;;;;;5.26;80.94;101688.56;5087498;28;20104;-67
2024/03/08 00:16:33;;;;;;;8.68;3.17;;;;;;;5.11;81.78;101688.84;5086475;28;20040;-67
2024/03/08 00:18:59;;;;;;;8.15;3.33;;;;;;;5.21;81.48;101688.66;5087834;28;20036;-67
2024/03/08 00:21:26;;;;;;;8.15;3.13;;;;;;;5.13;81.84;101684.00;5069835;28;20032;-68
2024/03/08 00:23:54;;;;;;;15.57;3.92;;;;;;;5.07;81.95;101685.94;5084686;28;20092;-68
2024/03/08 00:26:22;;;;;;;5.10;3.22;;;;;;;5.25;81.43;101686.97;5070177;28;20038;-67
2024/03/08 00:28:48;;;;;;;6.32;3.33;;;;;;;5.12;81.44;101688.53;5086520;28;20028;-67
2024/03/08 00:31:18;;;;;;;8.00;4.18;;;;;;;4.98;82.20;101685.03;5070863;28;20036;-67
2024/03/08 00:33:45;;;;;;;7.40;3.58;;;;;;;4.92;83.04;101680.84;5086403;28;20035;-67
2024/03/08 00:36:11;;;;;;;9.55;3.83;;;;;;;4.92;82.70;101680.84;5086948;28;20031;-67
2024/03/08 00:38:36;;;;;;;9.20;3.53;;;;;;;5.11;82.21;101689.63;5085454;28;20423;-67
2024/03/08 00:41:02;;;;;;;6.70;2.90;;;;;;;4.96;82.03;101683.72;5085052;28;20085;-67
2024/03/08 00:43:30;;;;;;;7.80;3.78;;;;;;;4.95;82.24;101682.97;5084724;28;20085;-67
2024/03/08 00:45:57;;;;;;;8.35;3.35;;;;;;;4.79;82.51;101686.13;5086997;28;20039;-67
2024/03/08 00:48:23;;;;;;;6.90;3.13;;;;;;;4.80;82.78;101685.84;5104377;28;20028;-67
2024/03/08 00:50:49;;;;;;;8.57;3.05;;;;;;;4.85;82.84;101677.78;5088079;28;20032;-67
2024/03/08 00:53:15;;;;;;;9.70;3.17;;;;;;;4.88;82.63;101679.06;5086080;28;20056;-67
2024/03/08 00:55:42;;;;;;;8.18;3.53;;;;;;;4.78;81.94;101676.56;5069432;28;20039;-67
2024/03/08 00:58:09;;;;;;;10.45;3.47;;;;;;;4.82;82.90;101667.66;5085526;28;20036;-67
2024/03/08 01:00:35;;;;;;;6.13;3.22;;;;;;;4.85;82.94;101669.78;5103707;27;20059;-67
2024/03/08 01:03:00;;;;;;;6.35;3.92;;;;;;;4.79;82.78;101668.25;5088636;28;20512;-67
2024/03/08 01:05:26;;;;;;;7.15;3.05;;;;;;;4.82;82.31;101666.91;5067557;28;20039;-67
2024/03/08 01:07:54;;;;;;;9.40;3.53;;;;;;;4.90;82.06;101667.00;5084423;28;20036;-67
2024/03/08 01:10:20;;;;;;;9.05;3.33;;;;;;;4.89;82.14;101669.97;5084485;28;20039;-67
2024/03/08 01:12:45;;;;;;;7.47;3.17;;;;;;;4.82;82.06;101665.00;5085740;28;20032;-67
2024/03/08 01:15:11;;;;;;;10.07;3.50;;;;;;;4.48;83.73;101656.47;5084927;28;20516;-67
2024/03/08 01:17:37;;;;;;;6.88;3.80;;;;;;;4.61;83.10;101655.72;5069270;28;20032;-67
2024/03/08 01:20:04;;;;;;;8.27;3.85;;;;;;;4.45;83.29;101644.50;5084976;28;20443;-67
2024/03/08 01:22:31;;;;;;;8.98;3.90;;;;;;;4.44;83.95;101642.13;5085570;28;20032;-67
2024/03/08 01:24:57;;;;;;;8.07;3.55;;;;;;;4.54;83.68;101647.31;5082271;28;20052;-67
2024/03/08 01:27:24;;;;;;;4.50;2.60;;;;;;;4.60;82.93;101643.50;5067495;28;20074;-67
2024/03/08 01:29:51;;;;;;;11.38;5.07;;;;;;;4.43;83.97;101627.22;5088879;28;20055;-67
2024/03/08 01:32:17;;;;;;;13.57;4.57;;;;;;;4.56;83.91;101624.63;5088777;28;20028;-67
2024/03/08 01:34:45;;;;;;;7.50;3.28;;;;;;;4.47;83.59;101625.56;5090495;28;20371;-67
2024/03/08 01:37:11;;;;;;;11.15;3.22;;;;;;;4.40;84.39;101622.44;5090134;28;20028;-67
2024/03/08 01:39:37;;;;;;;6.85;3.22;;;;;;;4.52;83.36;101617.47;5070976;28;20633;-67
2024/03/08 01:42:03;;;;;;;7.05;3.50;;;;;;;4.50;83.14;101616.97;5088686;28;20771;-67
2024/03/08 01:44:30;;;;;;;6.05;3.13;;;;;;;4.42;82.92;101604.28;5091760;28;20489;-67
2024/03/08 01:46:56;;;;;;;7.60;3.22;;;;;;;4.33;84.04;101603.38;5090461;28;20032;-67
2024/03/08 01:49:25;;;;;;;8.38;3.95;;;;;;;4.44;83.88;101599.47;5089960;28;20024;-67
2024/03/08 01:51:51;;;;;;;6.40;3.92;;;;;;;4.29;84.60;101597.81;5088595;28;20035;-67
2024/03/08 01:54:18;;;;;;;7.85;3.22;;;;;;;4.25;84.54;101596.81;5089639;28;20024;-67
2024/03/08 01:56:44;;;;;;;9.35;3.95;;;;;;;4.27;84.66;101594.66;5089725;28;20051;-67
2024/03/08 01:59:10;;;;;;;5.55;2.63;;;;;;;4.35;85.04;101593.22;5122259;27;20032;-67
2024/03/08 02:01:36;;;;;;;6.55;2.75;;;;;;;4.36;83.90;101589.44;5074088;28;20032;-67
2024/03/08 02:04:02;;;;;;;6.25;2.95;;;;;;;4.27;84.44;101580.53;5087361;28;20040;-67
2024/03/08 02:06:29;;;;;;;8.43;3.88;;;;;;;4.11;85.13;101579.16;5073409;28;20500;-67
2024/03/08 02:08:55;;;;;;;6.25;3.25;;;;;;;4.04;85.94;101576.06;5087882;28;20028;-67
2024/03/08 02:11:21;;;;;;;5.97;3.55;;;;;;;4.18;85.59;101584.94;5105838;27;20594;-67
2024/03/08 02:13:49;;;;;;;7.25;3.47;;;;;;;4.17;85.36;101583.34;5071695;28;20508;-68
2024/03/08 02:16:21;;;;;;;12.90;3.55;;;;;;;4.06;85.59;101582.69;5089562;28;20032;-67
2024/03/08 02:18:46;;;;;;;5.80;3.70;;;;;;;4.03;86.08;101579.78;5090754;28;20028;-67
2024/03/08 02:21:12;;;;;;;7.25;4.07;;;;;;;4.05;86.00;101577.63;5087250;28;20035;-67
2024/03/08 02:23:39;;;;;;;8.90;2.90;;;;;;;4.10;85.03;101569.59;5088229;28;20799;-67
2024/03/08 02:26:07;;;;;;;7.55;3.60;;;;;;;4.19;85.81;101573.19;5090063;28;20040;-67
2024/03/08 02:28:35;;;;;;;8.30;3.10;;;;;;;4.15;85.46;101569.50;5079196;28;20035;-67
2024/03/08 02:31:00;;;;;;;6.45;3.58;;;;;;;4.33;84.57;101568.72;5077241;28;20032;-67
2024/03/08 02:33:29;;;;;;;13.40;4.07;;;;;;;4.23;84.62;101577.66;5089003;28;20545;-67
2024/03/08 02:35:56;;;;;;;9.95;3.15;;;;;;;4.09;85.42;101578.66;5071661;28;20028;-67
2024/03/08 02:38:24;;;;;;;8.15;4.13;;;;;;;4.03;86.03;101571.81;5087458;28;20162;-67
2024/03/08 02:40:52;;;;;;;12.65;5.18;;;;;;;3.99;85.77;101563.59;5089160;28;20040;-67
2024/03/08 02:43:20;;;;;;;6.53;3.25;;;;;;;4.04;86.00;101563.53;5090144;28;20031;-67
2024/03/08 02:45:46;;;;;;;7.68;3.05;;;;;;;4.17;85.17;101573.47;5094330;28;20177;-67
2024/03/08 02:48:13;;;;;;;7.18;4.30;;;;;;;4.13;85.46;101561.00;5089088;28;20114;-67
2024/03/08 02:50:40;;;;;;;13.30;3.70;;;;;;;4.17;85.12;101570.00;5089258;28;20032;-67
2024/03/08 02:53:06;;;;;;;4.88;2.50;;;;;;;4.15;85.18;101564.19;5089103;28;20028;-67
2024/03/08 02:55:33;;;;;;;6.65;3.15;;;;;;;3.98;85.67;101554.03;5089373;28;20032;-67
2024/03/08 02:57:59;;;;;;;6.18;3.72;;;;;;;4.05;85.76;101556.31;5088209;28;20031;-67
2024/03/08 03:00:26;;;;;;;7.13;3.60;;;;;;;4.07;85.40;101551.50;5068843;28;20019;-67
2024/03/08 03:02:53;;;;;;;13.48;3.92;;;;;;;4.00;85.40;101540.41;5090841;28;20084;-67
2024/03/08 03:05:23;;;;;;;8.73;3.22;;;;;;;3.88;86.12;101553.38;5087155;28;20066;-67
2024/03/08 03:07:50;;;;;;;9.70;3.67;;;;;;;3.99;85.78;101552.19;5087506;28;20020;-67
2024/03/08 03:10:19;;;;;;;8.77;3.65;;;;;;;3.94;85.74;101541.56;5087644;28;20028;-67
2024/03/08 03:12:46;;;;;;;8.23;3.75;;;;;;;3.77;86.92;101547.41;5089185;28;20036;-67
2024/03/08 03:15:13;;;;;;;5.72;3.58;;;;;;;3.77;86.91;101546.59;5074507;28;20123;-67
2024/03/08 03:17:41;;;;;;;8.73;4.10;;;;;;;3.86;86.59;101550.22;5073832;28;20604;-67
2024/03/08 03:20:12;;;;;;;6.10;2.95;;;;;;;3.89;86.58;101549.66;5089177;28;20055;-67
2024/03/08 03:22:40;;;;;;;13.85;4.18;;;;;;;3.91;86.42;101542.16;5086407;28;20544;-67
2024/03/08 03:25:07;;;;;;;6.15;3.72;;;;;;;4.02;85.83;101539.06;5089653;28;20543;-67
2024/03/08 03:27:33;;;;;;;8.68;3.63;;;;;;;4.03;84.90;101545.16;5104371;27;20039;-67
2024/03/08 03:30:20;;;;;;;8.60;3.78;;;;;;;3.91;86.17;101544.81;5080017;28;20045;-67
2024/03/08 03:32:50;;;;;;;5.65;2.97;;;;;;;3.91;85.56;101540.28;5071363;28;20063;-67
2024/03/08 03:35:18;;;;;;;6.32;2.83;;;;;;;3.92;85.72;101541.06;5088791;28;20486;-67
2024/03/08 03:37:51;;;;;;;10.00;3.97;;;;;;;3.91;85.27;101542.16;5088367;28;20111;-67
2024/03/08 03:40:20;;;;;;;6.55;2.85;;;;;;;3.66;86.91;101540.63;5069708;28;20114;-67
2024/03/08 03:42:47;;;;;;;10.88;3.97;;;;;;;3.72;86.60;101547.47;5086576;28;20038;-67
2024/03/08 03:45:14;;;;;;;7.55;3.03;;;;;;;3.80;85.96;101530.03;5089960;28;20019;-67
2024/03/08 03:47:43;;;;;;;7.47;3.38;;;;;;;3.86;86.56;101539.56;5088051;28;20035;-67
2024/03/08 03:50:09;;;;;;;9.43;3.80;;;;;;;3.82;86.54;101544.66;5088337;28;20052;-67
2024/03/08 03:52:36;;;;;;;9.63;3.50;;;;;;;3.79;86.75;101539.94;5091567;28;20032;-67
2024/03/08 03:55:04;;;;;;;4.47;2.10;;;;;;;3.82;85.80;101542.00;5086858;28;20149;-67
2024/03/08 03:57:30;;;;;;;9.10;3.55;;;;;;;3.90;85.59;101536.03;5085887;28;20162;-67
2024/03/08 03:59:59;;;;;;;7.07;3.92;;;;;;;3.65;86.37;101541.69;5084221;28;20111;-67
2024/03/08 04:02:26;;;;;;;9.75;3.22;;;;;;;3.75;86.41;101535.44;5087139;28;20630;-67
2024/03/08 04:04:55;;;;;;;8.00;3.33;;;;;;;3.82;85.98;101541.19;5088309;28;20057;-67
2024/03/08 04:07:21;;;;;;;6.82;2.95;;;;;;;3.77;86.31;101541.28;5087055;28;20032;-67
2024/03/08 04:09:47;;;;;;;7.78;3.13;;;;;;;3.74;85.95;101542.63;5089541;28;20028;-67
2024/03/08 04:12:15;;;;;;;9.25;3.35;;;;;;;3.82;86.23;101536.69;5071457;28;20028;-67
2024/03/08 04:14:42;;;;;;;7.07;3.90;;;;;;;3.82;85.65;101542.00;5088828;28;20039;-67
2024/03/08 04:17:08;;;;;;;10.48;4.18;;;;;;;3.85;85.69;101530.78;5089812;28;20038;-67
2024/03/08 04:19:35;;;;;;;12.88;3.28;;;;;;;3.86;84.95;101544.88;5086379;28;20032;-67
2024/03/08 04:22:02;;;;;;;4.05;2.70;;;;;;;3.83;85.56;101540.13;5085927;28;20092;-68
2024/03/08 04:24:28;;;;;;;5.80;3.33;;;;;;;3.78;85.71;101537.53;5083632;28;20071;-67
2024/03/08 04:26:54;;;;;;;11.18;2.55;;;;;;;3.72;85.70;101534.16;5085555;28;20070;-67
2024/03/08 04:29:21;;;;;;;6.45;3.25;;;;;;;3.68;86.20;101525.16;5086834;28;20587;-67
2024/03/08 04:31:47;;;;;;;5.43;3.65;;;;;;;3.65;85.72;101526.53;5075987;28;20012;-67
2024/03/08 04:34:13;;;;;;;7.80;2.70;;;;;;;3.66;86.21;101521.97;5088219;28;20091;-67
2024/03/08 04:36:39;;;;;;;6.15;2.78;;;;;;;3.69;86.02;101529.41;5069214;28;20040;-67
2024/03/08 04:39:05;;;;;;;17.30;4.38;;;;;;;3.54;86.61;101522.41;5067748;28;20032;-67
2024/03/08 04:41:34;;;;;;;5.82;3.80;;;;;;;3.55;87.08;101513.34;5085490;28;20032;-67
2024/03/08 04:43:59;;;;;;;6.53;3.17;;;;;;;3.46;87.12;101523.06;5073499;28;20039;-67
2024/03/08 04:46:28;;;;;;;8.50;4.32;;;;;;;3.42;87.50;101519.38;5090175;28;20039;-67
2024/03/08 04:48:54;;;;;;;7.63;3.85;;;;;;;3.30;87.97;101518.97;5070445;28;20032;-67
2024/03/08 04:51:21;;;;;;;6.95;4.13;;;;;;;3.47;87.65;101511.31;5087076;28;20034;-67
2024/03/08 04:53:47;;;;;;;6.90;3.15;;;;;;;3.54;86.63;101502.97;5069285;28;20067;-67
2024/03/08 04:56:13;;;;;;;8.50;4.18;;;;;;;3.38;87.37;101506.91;5086654;28;20823;-67
2024/03/08 04:58:39;;;;;;;9.50;4.13;;;;;;;3.32;87.44;101516.84;5068719;28;20032;-67
2024/03/08 05:01:05;;;;;;;12.35;4.05;;;;;;;3.36;87.15;101504.53;5053169;28;20020;-67
2024/03/08 05:03:31;;;;;;;4.07;2.25;;;;;;;3.46;86.67;101499.09;5088880;28;20032;-67
2024/03/08 05:05:57;;;;;;;10.30;4.75;;;;;;;3.45;86.31;101505.47;5086277;28;20043;-67
2024/03/08 05:08:23;;;;;;;10.32;3.92;;;;;;;3.30;86.90;101505.69;5085463;28;20023;-67
2024/03/08 05:10:48;;;;;;;5.60;3.25;;;;;;;3.26;87.56;101498.53;5084382;28;20024;-67
2024/03/08 05:13:16;;;;;;;9.20;4.00;;;;;;;3.17;87.78;101498.41;5068093;28;20032;-67
2024/03/08 05:15:42;;;;;;;9.95;3.58;;;;;;;3.27;87.35;101500.13;5067979;28;20023;-67
2024/03/08 05:18:11;;;;;;;7.88;3.72;;;;;;;3.16;87.80;101504.78;5083220;28;20028;-67
2024/03/08 05:20:37;;;;;;;12.88;3.40;;;;;;;3.29;87.18;101498.00;5084868;28;20138;-67
2024/03/08 05:23:03;;;;;;;4.82;2.78;;;;;;;3.20;87.26;101497.81;5068236;28;20032;-67
2024/03/08 05:25:29;;;;;;;10.02;2.88;;;;;;;3.28;87.12;101499.84;5083027;28;20044;-67
2024/03/08 05:27:54;;;;;;;9.82;4.03;;;;;;;3.08;87.76;101496.66;5084248;28;20157;-67
2024/03/08 05:30:21;;;;;;;6.10;3.03;;;;;;;3.13;88.22;101501.91;5086269;28;20111;-67
2024/03/08 05:32:47;;;;;;;12.25;3.85;;;;;;;3.25;87.35;101496.97;5082866;28;20546;-67
2024/03/08 05:35:16;;;;;;;4.78;3.55;;;;;;;3.20;87.51;101492.50;5084173;28;20027;-67
2024/03/08 05:37:44;;;;;;;5.47;2.33;;;;;;;3.23;87.78;101491.13;5084979;28;20123;-67
2024/03/08 05:40:10;;;;;;;13.73;4.45;;;;;;;3.21;87.69;101486.09;5080458;28;20523;-67
2024/03/08 05:42:36;;;;;;;6.97;3.58;;;;;;;3.24;87.61;101488.19;5050159;28;20040;-67
2024/03/08 05:45:10;;;;;;;6.43;3.78;;;;;;;3.26;87.44;101493.22;5084901;28;20028;-67
2024/03/08 05:47:37;;;;;;;4.40;2.58;;;;;;;3.19;87.40;101488.25;5087928;28;20032;-67
2024/03/08 05:50:04;;;;;;;14.40;3.17;;;;;;;3.18;87.89;101486.66;5117792;27;20021;-67
2024/03/08 05:52:30;;;;;;;7.20;3.65;;;;;;;3.14;88.01;101488.31;5085583;28;20037;-67
2024/03/08 05:54:55;;;;;;;7.82;3.42;;;;;;;3.12;88.35;101487.78;5072288;28;20079;-67
2024/03/08 05:57:23;;;;;;;8.13;4.05;;;;;;;3.15;88.44;101487.25;5066175;28;20063;-67
2024/03/08 05:59:49;;;;;;;8.02;3.13;;;;;;;3.22;87.97;101484.22;5084758;28;20629;-67
2024/03/08 06:02:19;;;;;;;5.50;2.83;;;;;;;3.27;88.08;101492.94;5083041;28;20546;-67
2024/03/08 06:04:47;;;;;;;10.45;4.38;;;;;;;3.35;87.36;101491.50;5089401;28;20129;-67
2024/03/08 06:07:12;;;;;;;8.80;4.47;;;;;;;3.17;88.17;101494.94;5085473;28;20028;-67
2024/03/08 06:09:38;;;;;;;8.25;3.90;;;;;;;3.28;88.04;101494.53;5085763;28;20039;-67
2024/03/08 06:12:06;;;;;;;9.48;4.32;;;;;;;3.32;87.31;101497.41;5082798;28;20036;-67
2024/03/08 06:14:32;;;;;;;9.63;3.92;;;;;;;3.13;88.04;101494.72;5082776;28;20046;-67
2024/03/08 06:16:57;;;;;;;6.55;2.80;;;;;;;3.17;88.54;101494.94;5075870;28;20503;-67
2024/03/08 06:19:23;;;;;;;6.63;3.67;;;;;;;3.11;88.84;101491.53;5090333;28;20036;-67
2024/03/08 06:21:49;;;;;;;9.90;5.05;;;;;;;3.17;88.44;101494.94;5093054;28;20028;-67
2024/03/08 06:24:15;;;;;;;5.80;3.50;;;;;;;3.07;88.86;101490.53;5098647;28;20032;-67
2024/03/08 06:26:40;;;;;;;7.70;3.83;;;;;;;3.08;89.42;101497.41;5094160;28;20098;-67
2024/03/08 06:29:09;;;;;;;8.02;3.28;;;;;;;3.00;89.85;101491.94;5077107;28;20023;-67
2024/03/08 06:31:38;;;;;;;5.05;2.60;;;;;;;2.92;90.84;101488.03;5090348;28;20085;-67
2024/03/08 06:34:07;;;;;;;7.45;3.55;;;;;;;3.06;90.48;101486.25;5078147;28;20519;-67
2024/03/08 06:36:33;;;;;;;8.23;4.63;;;;;;;3.02;89.64;101495.88;5097536;28;20568;-67
2024/03/08 06:38:59;;;;;;;6.90;2.50;;;;;;;3.15;89.66;101492.56;5096003;28;20074;-67
2024/03/08 06:41:24;;;;;;;8.07;2.83;;;;;;;3.09;89.96;101480.41;5110797;27;20059;-67
2024/03/08 06:43:51;;;;;;;10.70;3.97;;;;;;;3.18;89.78;101484.00;5096390;28;20059;-67
2024/03/08 06:46:18;;;;;;;9.25;3.97;;;;;;;3.30;88.93;101484.38;5087493;28;20028;-67
2024/03/08 06:48:45;;;;;;;8.40;3.75;;;;;;;3.26;89.21;101486.03;5096656;28;20539;-67
2024/03/08 06:51:11;;;;;;;8.40;3.08;;;;;;;3.23;89.57;101477.84;5073167;28;20028;-67
2024/03/08 06:53:38;;;;;;;6.53;3.95;;;;;;;3.34;89.28;101488.06;5089015;28;20024;-68
2024/03/08 06:56:04;;;;;;;7.38;3.17;;;;;;;3.51;87.94;101487.56;5092745;28;20087;-67
2024/03/08 06:58:29;;;;;;;10.77;4.35;;;;;;;3.33;89.39;101483.81;5097349;28;20024;-67
2024/03/08 07:00:58;;;;;;;3.83;2.42;;;;;;;3.38;88.74;101475.78;5096131;28;20416;-67
2024/03/08 07:03:24;;;;;;;14.13;4.38;;;;;;;3.54;88.42;101484.34;5089906;28;20687;-67
2024/03/08 07:05:49;;;;;;;9.38;3.47;;;;;;;3.52;87.63;101483.84;5089099;28;20493;-67
2024/03/08 07:08:16;;;;;;;9.55;4.10;;;;;;;3.56;88.04;101484.84;5092660;28;20039;-67
2024/03/08 07:10:45;;;;;;;12.05;4.43;;;;;;;3.51;88.03;101484.91;5094349;28;20032;-67
2024/03/08 07:13:10;;;;;;;16.20;2.80;;;;;;;3.35;89.24;101486.19;5089554;28;20028;-67
2024/03/08 07:15:36;;;;;;;9.30;4.38;;;;;;;3.44;88.83;101482.63;5093790;28;20036;-67
2024/03/08 07:18:02;;;;;;;7.72;4.85;;;;;;;3.48;88.57;101480.94;5108384;27;20129;-67
2024/03/08 07:20:28;;;;;;;11.65;4.03;;;;;;;3.45;89.01;101480.72;5095975;28;20030;-67
2024/03/08 07:22:55;;;;;;;14.65;4.50;;;;;;;3.46;88.88;101477.81;5072475;28;20093;-67
2024/03/08 07:25:21;;;;;;;15.55;5.10;;;;;;;3.62;89.58;101478.34;5091733;28;20104;-67
2024/03/08 07:27:56;;;;;;;6.47;3.25;;;;;;;3.75;89.06;101479.53;5089173;28;20028;-67
2024/03/08 07:33:08;;;;;;;13.30;4.55;;;;;;;4.04;88.14;101488.94;5091138;28;20489;-67
2024/03/08 07:35:36;;;;;;;13.50;4.03;;;;;;;4.25;88.41;101481.41;5105806;27;20039;-67
2024/03/08 07:38:09;;;;;;;20.90;5.47;;;;;;;4.52;87.42;101489.47;5109375;27;20119;-67
2024/03/08 07:40:38;;;;;;;8.85;3.45;;;;;;;4.78;86.43;101492.50;5088570;28;20058;-67
2024/03/08 07:43:03;;;;;;;9.63;4.05;;;;;;;5.02;85.08;101480.53;5123671;27;20036;-67
2024/03/08 07:45:30;;;;;;;9.05;4.32;;;;;;;5.23;83.93;101491.59;5092927;28;20169;-67
2024/03/08 07:47:56;;;;;;;8.32;4.25;;;;;;;5.30;82.09;101489.31;5092152;28;20154;-67
2024/03/08 07:50:22;;;;;;;11.70;4.28;;;;;;;5.39;81.41;101487.53;5089210;28;20060;-67
2024/03/08 07:52:49;;;;;;;13.85;4.55;;;;;;;5.55;80.69;101488.78;5091288;28;20386;-67
2024/03/08 07:55:15;;;;;;;9.77;4.30;;;;;;;5.75;80.54;101484.88;5073697;28;20081;-67
2024/03/08 07:57:40;;;;;;;7.35;4.00;;;;;;;5.95;79.08;101479.88;5090681;28;20028;-67
2024/03/08 08:00:10;;;;;;;18.10;4.63;;;;;;;6.00;77.97;101487.00;5088937;28;20028;-67
2024/03/08 08:02:36;;;;;;;15.82;4.75;;;;;;;6.27;77.51;101487.66;5088554;28;20033;-67
2024/03/08 08:05:03;;;;;;;10.63;3.70;;;;;;;6.38;77.52;101498.91;5106207;27;20122;-67
2024/03/08 08:07:29;;;;;;;10.20;4.10;;;;;;;6.41;76.53;101482.22;5105531;27;20050;-67
2024/03/08 08:09:54;;;;;;;13.55;4.75;;;;;;;6.77;74.82;101482.13;5084677;28;20067;-67
2024/03/08 08:12:20;;;;;;;12.15;4.72;;;;;;;6.97;75.17;101479.66;5085573;28;20462;-67
2024/03/08 08:14:46;;;;;;;11.40;4.72;;;;;;;7.05;73.32;101473.56;5093449;28;20031;-67
2024/03/08 08:17:12;;;;;;;11.43;4.43;;;;;;;7.18;72.03;101480.69;5071526;28;21053;-67
2024/03/08 08:19:38;;;;;;;14.32;5.55;;;;;;;7.24;71.67;101475.97;5071270;28;20536;-67
2024/03/08 08:22:04;;;;;;;10.20;4.32;;;;;;;7.47;71.20;101464.03;5087859;28;20757;-67
2024/03/08 08:24:31;;;;;;;14.73;5.47;;;;;;;7.52;72.11;101468.47;5089960;28;20028;-67
2024/03/08 08:26:57;;;;;;;17.02;4.45;;;;;;;7.78;70.89;101474.63;5122061;27;20473;-67
2024/03/08 08:29:22;;;;;;;14.52;5.60;;;;;;;7.95;69.77;101478.13;5073093;28;20122;-67
2024/03/08 08:31:49;;;;;;;8.75;3.72;;;;;;;8.29;68.00;101481.88;5091514;28;20031;-67
2024/03/08 08:34:19;;;;;;;16.45;5.70;;;;;;;8.21;67.43;101475.38;5091010;28;20055;-67
2024/03/08 08:36:45;;;;;;;18.35;4.82;;;;;;;8.40;67.81;101467.03;5087149;28;20099;-68
2024/03/08 08:39:13;;;;;;;15.25;5.00;;;;;;;8.64;67.30;101468.03;5082689;28;20549;-67
2024/03/08 08:41:41;;;;;;;15.75;4.80;;;;;;;8.74;64.78;101472.28;5121922;27;20024;-67
2024/03/08 08:44:09;;;;;;;16.85;5.40;;;;;;;9.00;63.48;101472.97;5083592;28;20028;-67
2024/03/08 08:46:37;;;;;;;12.07;6.10;;;;;;;8.97;63.78;101468.22;5091119;28;20032;-67
2024/03/08 08:49:04;;;;;;;13.43;5.20;;;;;;;8.92;63.35;101476.47;5089246;28;20111;-67
2024/03/08 08:51:30;;;;;;;17.25;5.05;;;;;;;9.08;63.56;101466.75;5072422;28;20035;-67
2024/03/08 08:53:55;;;;;;;15.05;5.68;;;;;;;9.24;62.88;101469.66;5087436;28;20039;-67
2024/03/08 08:56:22;;;;;;;13.50;4.63;;;;;;;9.48;62.48;101453.72;5072377;28;20027;-67
2024/03/08 08:58:48;;;;;;;18.42;6.47;;;;;;;9.67;61.91;101457.53;5087485;28;20036;-67
2024/03/08 09:01:14;;;;;;;14.75;5.40;;;;;;;9.92;60.03;101461.91;5084011;28;20054;-67
2024/03/08 09:03:46;;;;;;;11.45;4.95;;;;;;;9.81;59.20;101457.25;5088926;28;20519;-66
2024/03/08 09:06:12;;;;;;;17.13;5.78;;;;;;;9.99;59.21;101450.59;5073809;28;20056;-67
2024/03/08 09:08:43;;;;;;;17.15;6.20;;;;;;;10.17;59.05;101453.94;5088414;28;20678;-67
2024/03/08 09:11:10;;;;;;;21.65;5.68;;;;;;;10.43;57.87;101455.22;5089013;28;20027;-67
2024/03/08 09:13:36;;;;;;;15.02;5.93;;;;;;;10.47;57.34;101458.81;5067473;28;20123;-67
2024/03/08 09:16:05;;;;;;;20.02;6.32;;;;;;;10.57;56.67;101457.59;5084441;28;20032;-67
2024/03/08 09:18:31;;;;;;;16.92;5.70;;;;;;;10.55;56.82;101441.78;5083928;28;20028;-67
2024/03/08 09:20:58;;;;;;;16.70;6.35;;;;;;;10.70;56.82;101451.13;5086653;28;20024;-67
2024/03/08 09:23:25;;;;;;;16.17;6.15;;;;;;;10.77;56.15;101444.06;5087168;28;20387;-67
2024/03/08 09:25:51;;;;;;;21.10;6.57;;;;;;;10.96;55.98;101443.50;5089828;28;20071;-67
2024/03/08 09:28:17;;;;;;;16.73;6.75;;;;;;;11.21;54.92;101436.16;5070453;28;20040;-67
2024/03/08 09:30:42;;;;;;;15.23;6.32;;;;;;;11.01;54.37;101429.03;5089714;28;20028;-67
2024/03/08 09:33:09;;;;;;;14.85;5.65;;;;;;;11.32;52.94;101431.91;5074101;28;20047;-67
2024/03/08 09:35:35;;;;;;;11.27;5.32;;;;;;;11.19;53.20;101420.34;5073193;28;20032;-67
2024/03/08 09:38:04;;;;;;;11.90;5.47;;;;;;;11.11;52.84;101431.25;5087428;28;20028;-67
2024/03/08 09:40:31;;;;;;;14.02;4.70;;;;;;;11.24;52.98;101422.03;5074423;28;20035;-67
2024/03/08 09:42:57;;;;;;;11.20;4.80;;;;;;;11.28;51.61;101417.53;5088030;28;20016;-67
2024/03/08 09:45:23;;;;;;;10.75;5.10;;;;;;;11.19;52.38;101408.78;5086202;28;20035;-67
2024/03/08 09:47:49;;;;;;;15.23;6.20;;;;;;;11.24;51.98;101412.03;5083948;28;20036;-67
2024/03/08 09:50:17;;;;;;;17.58;5.85;;;;;;;11.24;51.94;101409.34;5087509;28;20028;-67
2024/03/08 09:52:47;;;;;;;10.10;4.72;;;;;;;11.17;52.46;101397.56;5077152;28;20053;-67
2024/03/08 09:55:12;;;;;;;10.07;4.35;;;;;;;10.91;52.67;101403.31;5091275;28;20028;-67
2024/03/08 09:57:39;;;;;;;11.82;5.20;;;;;;;10.78;53.29;101393.69;5086114;28;20086;-67
2024/03/08 10:00:18;;;;;;;12.18;5.68;;;;;;;10.68;53.42;101388.72;5093150;28;20106;-67
2024/03/08 10:02:50;;;;;;;12.95;4.55;;;;;;;10.61;53.58;101383.91;5105138;27;20085;-67
2024/03/08 10:05:15;;;;;;;13.73;4.68;;;;;;;10.70;53.61;101391.88;5072562;28;20126;-67
2024/03/08 10:07:41;;;;;;;13.70;4.88;;;;;;;10.63;53.25;101380.84;5090270;28;20108;-67
2024/03/08 10:10:08;;;;;;;14.75;5.03;;;;;;;10.53;53.51;101375.94;5074171;28;20035;-67
2024/03/08 10:12:37;;;;;;;10.43;4.65;;;;;;;10.42;54.51;101374.78;5085560;28;20487;-67
2024/03/08 10:15:05;;;;;;;11.27;4.95;;;;;;;10.59;53.62;101372.66;5089499;28;20024;-67
2024/03/08 10:17:32;;;;;;;13.68;4.97;;;;;;;10.59;53.82;101369.97;5091843;28;20047;-67
2024/03/08 10:19:58;;;;;;;14.98;5.13;;;;;;;10.47;54.13;101366.50;5089364;28;20063;-67
2024/03/08 10:22:26;;;;;;;12.85;4.78;;;;;;;10.57;53.40;101360.66;5092093;28;20032;-67
2024/03/08 10:24:53;;;;;;;9.60;4.80;;;;;;;10.71;53.97;101351.13;5090310;28;20051;-67
2024/03/08 10:27:20;;;;;;;11.05;5.05;;;;;;;10.76;53.87;101356.28;5092830;28;20062;-66
2024/03/08 10:29:47;;;;;;;10.45;4.43;;;;;;;10.56;53.64;101345.63;5094810;28;20051;-67
2024/03/08 10:32:13;;;;;;;16.70;5.07;;;;;;;10.43;52.61;101350.22;5093126;28;20028;-67
2024/03/08 10:34:38;;;;;;;9.75;4.65;;;;;;;10.41;52.40;101349.78;5095484;28;20046;-67
2024/03/08 10:37:07;;;;;;;9.63;4.05;;;;;;;10.45;52.35;101344.53;5096683;28;20032;-67
2024/03/08 10:39:36;;;;;;;10.63;4.30;;;;;;;10.46;52.46;101324.53;5089370;28;20027;-66
2024/03/08 10:42:08;;;;;;;9.63;4.60;;;;;;;10.51;52.15;101341.25;5091400;28;20034;-67
2024/03/08 10:44:45;;;;;;;13.38;5.05;;;;;;;10.38;52.55;101333.50;5091373;28;20028;-66
2024/03/08 10:47:29;;;;;;;15.00;4.90;;;;;;;10.46;53.08;101332.63;5078349;28;20059;-67
2024/03/08 10:50:08;;;;;;;10.82;4.90;;;;;;;10.33;53.09;101315.69;5092974;28;20055;-67
2024/03/08 10:52:34;;;;;;;16.75;4.80;;;;;;;10.56;53.55;101300.66;5090114;28;20058;-66
2024/03/08 10:55:02;;;;;;;8.10;4.05;;;;;;;10.57;52.00;101304.09;5074670;28;20023;-67
2024/03/08 10:57:27;;;;;;;12.70;4.50;;;;;;;10.49;52.34;101307.72;5092824;28;20373;-66
2024/03/08 10:59:54;;;;;;;8.98;3.90;;;;;;;10.71;51.77;101308.03;5091980;28;20043;-67
2024/03/08 11:02:19;;;;;;;12.82;4.65;;;;;;;10.82;51.30;101298.34;5079794;28;20127;-66
2024/03/08 11:04:50;;;;;;;12.35;4.45;;;;;;;10.91;50.89;101303.63;5075804;28;20562;-67
2024/03/08 11:07:20;;;;;;;9.43;4.05;;;;;;;10.95;50.82;101293.72;5088498;28;20496;-66
2024/03/08 11:09:48;;;;;;;11.38;4.10;;;;;;;10.71;50.60;101283.78;5086338;28;20039;-66
2024/03/08 11:12:43;;;;;;;10.10;4.25;;;;;;;10.66;51.05;101294.00;5089195;28;20040;-67
2024/03/08 11:15:18;;;;;;;10.25;3.72;;;;;;;10.75;50.77;101283.88;5072434;28;20049;-67
2024/03/08 11:17:50;;;;;;;10.07;4.28;;;;;;;10.70;50.49;101284.88;5089493;28;20036;-66
2024/03/08 11:20:22;;;;;;;9.85;4.28;;;;;;;10.88;49.89;101274.63;5085285;28;20034;-66
2024/03/08 11:22:53;;;;;;;11.23;4.20;;;;;;;10.94;49.88;101275.22;5086303;28;20035;-66
2024/03/08 11:25:43;;;;;;;9.10;3.65;;;;;;;10.84;50.52;101285.31;5088362;28;20028;-66
2024/03/08 11:28:20;;;;;;;10.68;3.95;;;;;;;10.86;50.18;101271.50;5091789;28;20028;-66
2024/03/08 11:31:01;;;;;;;10.35;4.45;;;;;;;10.96;50.07;101264.84;5076343;28;20031;-66
2024/03/08 11:33:29;;;;;;;7.28;3.60;;;;;;;10.94;50.40;101253.66;5105838;27;20034;-66